Dobrodošli na spletni strani vremenske postaje Senovo. Vse informacije so informativnega značaja, saj vremenska postaja ni del državne mreže meteoroloških postaj. AKTUALNIH OBVESTIL NI.


Sneg/Led Od: 22-02-2018 00:00 Do: 23-02-2018 23:59 Opozorilo za: Sneg/Led Stopnja: Rumena info button
Veter Od: 22-02-2018 00:00 Do: 23:59 Opozorilo za: Veter Stopnja: Rumena info button

Pogled proti Armezu več informacij Pogled proti Armezu


Lisca več informacij Lisca


Radar strel več informacij blitzortung!


opozorilo za sneg/led več informacij rain snow radar


Obiščite še:

Template documentation
and downloads

And another site



Weather Underground, zgodovina - Tekstovno

Dnevni povzetek za Januar 23, 2018 Enote:  Obe    Angleško   Metrično
« Predhodni Dan
Naslednji Dan »
Dnevni Tedenski Mesečni Letni Po meri
  Višja: Nižja: Povprečje:
Temperatura: TemperatureC °F /  -17.8 °C -2.9 °F /  -19.4 °C 1 °F /  -17.2 °C
Točka rosišča: DewpointC °F /  -17.8 °C -5.2 °F /  -20.7 °C -1.9 °F /  -18.8 °C
Vlažnost: Humidity % 61 % 81 %
Hitrost vetra: WindSpeedKMH mph /  0 km/h - 0.6 mph /  1 km/h
Sunki vetra: WindSpeedGustKMH mph /  0 km/h - -
Veter:- - SW
Zračni tlak: PressurehPa in /  0 hPa 1012.1 in /  34269.7 hPa -
Padavine: 0.0 in /  0 mm    
Historical Graphs
 
 
Tabelarni podarki za Januar 23, 2018
Čas Temperatura Točka rosišča Zračni tlak Veter Hitrost vetra Sunki vetra Vlažnost Intenziteta padavin (urna)
TemperatureC °F /  -17.8 °C DewpointC °F /  -17.8 °C PressurehPa in /  0 hPa Calm     Humidity % HourlyPrecipMM in /  0 mm
00:01 0.5 °F /  -17.5 °C -2.4 °F /  -19.1 °C 1013.1 in /  34303.6 hPa Calm     81 % 0.0 in /  0 mm
00:06 0.5 °F /  -17.5 °C -2.4 °F /  -19.1 °C 1013.1 in /  34303.6 hPa Calm     81 % 0.0 in /  0 mm
00:11 0.5 °F /  -17.5 °C -2.4 °F /  -19.1 °C 1013.1 in /  34303.6 hPa Calm     81 % 0.0 in /  0 mm
00:16 0.5 °F /  -17.5 °C -2.4 °F /  -19.1 °C 1013.1 in /  34303.6 hPa Calm     81 % 0.0 in /  0 mm
00:21 0.5 °F /  -17.5 °C -2.4 °F /  -19.1 °C 1013.1 in /  34303.6 hPa Calm     81 % 0.0 in /  0 mm
00:26 0.4 °F /  -17.6 °C -2.5 °F /  -19.2 °C 1013.1 in /  34303.6 hPa Calm     81 % 0.0 in /  0 mm
00:31 0.4 °F /  -17.6 °C -2.3 °F /  -19.1 °C 1013.1 in /  34303.6 hPa SW 1.0 mph /  1.6 km/h 4.7 mph /  7.6 km/h 82 % 0.0 in /  0 mm
00:36 0.5 °F /  -17.5 °C -2.2 °F /  -19 °C 1013.1 in /  34303.6 hPa SW 2.7 mph /  4.3 km/h 4.7 mph /  7.6 km/h 82 % 0.0 in /  0 mm
00:41 0.4 °F /  -17.6 °C -2.3 °F /  -19.1 °C 1013.1 in /  34303.6 hPa WSW 2.7 mph /  4.3 km/h 4.7 mph /  7.6 km/h 82 % 0.0 in /  0 mm
00:46 0.4 °F /  -17.6 °C -2.3 °F /  -19.1 °C 1013.1 in /  34303.6 hPa West 0.6 mph /  1 km/h 2.1 mph /  3.4 km/h 82 % 0.0 in /  0 mm
00:51 0.4 °F /  -17.6 °C -2.3 °F /  -19.1 °C 1013.1 in /  34303.6 hPa Calm     82 % 0.0 in /  0 mm
00:56 0.4 °F /  -17.6 °C -2.3 °F /  -19.1 °C 1013.1 in /  34303.6 hPa Calm     82 % 0.0 in /  0 mm
01:01 0.4 °F /  -17.6 °C -2.3 °F /  -19.1 °C 1013.1 in /  34303.6 hPa Calm     82 % 0.0 in /  0 mm
01:06 0.4 °F /  -17.6 °C -2.2 °F /  -19 °C 1013.1 in /  34303.6 hPa Calm     83 % 0.0 in /  0 mm
01:11 0.4 °F /  -17.6 °C -2.2 °F /  -19 °C 1013.1 in /  34303.6 hPa Calm     83 % 0.0 in /  0 mm
01:16 0.4 °F /  -17.6 °C -2.2 °F /  -19 °C 1013.1 in /  34303.6 hPa Calm     83 % 0.0 in /  0 mm
01:21 0.4 °F /  -17.6 °C -2.2 °F /  -19 °C 1013.1 in /  34303.6 hPa Calm     83 % 0.0 in /  0 mm
01:26 0.4 °F /  -17.6 °C -2.2 °F /  -19 °C 1013.1 in /  34303.6 hPa Calm     83 % 0.0 in /  0 mm
01:31 0.4 °F /  -17.6 °C -2.2 °F /  -19 °C 1013.1 in /  34303.6 hPa Calm     83 % 0.0 in /  0 mm
01:36 0.3 °F /  -17.6 °C -2.2 °F /  -19 °C 1013.1 in /  34303.6 hPa Calm     83 % 0.0 in /  0 mm
01:46 0.3 °F /  -17.6 °C -2.2 °F /  -19 °C 1013.1 in /  34303.6 hPa Calm     83 % 0.0 in /  0 mm
01:51 0.3 °F /  -17.6 °C -2.2 °F /  -19 °C 1013.1 in /  34303.6 hPa Calm     83 % 0.0 in /  0 mm
01:56 0.3 °F /  -17.6 °C -2.1 °F /  -18.9 °C 1012.1 in /  34269.7 hPa WSW 1.0 mph /  1.6 km/h 4.3 mph /  6.9 km/h 84 % 0.0 in /  0 mm
02:01 0.3 °F /  -17.6 °C -2.1 °F /  -18.9 °C 1012.1 in /  34269.7 hPa WSW 1.1 mph /  1.8 km/h 4.3 mph /  6.9 km/h 84 % 0.0 in /  0 mm
02:11 0.3 °F /  -17.6 °C -2.1 °F /  -18.9 °C 1013.1 in /  34303.6 hPa Calm     84 % 0.0 in /  0 mm
02:16 0.2 °F /  -17.7 °C -2.2 °F /  -19 °C 1013.1 in /  34303.6 hPa Calm     84 % 0.0 in /  0 mm
02:21 0.1 °F /  -17.7 °C -2.3 °F /  -19.1 °C 1013.1 in /  34303.6 hPa Calm     84 % 0.0 in /  0 mm
02:26 0.0 °F /  -17.8 °C -2.4 °F /  -19.1 °C 1013.1 in /  34303.6 hPa WSW 0.6 mph /  1 km/h 3.5 mph /  5.6 km/h 84 % 0.0 in /  0 mm
02:31 -0.1 °F /  -17.8 °C -2.5 °F /  -19.2 °C 1013.1 in /  34303.6 hPa WNW 1.4 mph /  2.3 km/h 3.5 mph /  5.6 km/h 84 % 0.0 in /  0 mm
02:36 -0.2 °F /  -17.9 °C -2.6 °F /  -19.2 °C 1013.1 in /  34303.6 hPa NW 1.9 mph /  3.1 km/h 4.3 mph /  6.9 km/h 84 % 0.0 in /  0 mm
02:41 -0.4 °F /  -18 °C -2.8 °F /  -19.3 °C 1013.1 in /  34303.6 hPa WNW 1.3 mph /  2.1 km/h 4.3 mph /  6.9 km/h 84 % 0.0 in /  0 mm
02:51 -0.5 °F /  -18.1 °C -2.9 °F /  -19.4 °C 1013.1 in /  34303.6 hPa Calm     84 % 0.0 in /  0 mm
02:56 -0.5 °F /  -18.1 °C -2.9 °F /  -19.4 °C 1014.1 in /  34337.4 hPa Calm     84 % 0.0 in /  0 mm
03:06 -0.7 °F /  -18.2 °C -3.1 °F /  -19.5 °C 1014.1 in /  34337.4 hPa Calm     84 % 0.0 in /  0 mm
03:11 -0.7 °F /  -18.2 °C -3.1 °F /  -19.5 °C 1014.1 in /  34337.4 hPa Calm     84 % 0.0 in /  0 mm
03:16 -0.8 °F /  -18.2 °C -3.2 °F /  -19.6 °C 1014.1 in /  34337.4 hPa Calm     84 % 0.0 in /  0 mm
03:21 -0.9 °F /  -18.3 °C -3.3 °F /  -19.6 °C 1014.1 in /  34337.4 hPa Calm     84 % 0.0 in /  0 mm
03:26 -0.9 °F /  -18.3 °C -3.3 °F /  -19.6 °C 1014.1 in /  34337.4 hPa Calm     84 % 0.0 in /  0 mm
03:31 -1.0 °F /  -18.3 °C -3.2 °F /  -19.6 °C 1014.1 in /  34337.4 hPa Calm     85 % 0.0 in /  0 mm
03:36 -1.0 °F /  -18.3 °C -3.2 °F /  -19.6 °C 1014.1 in /  34337.4 hPa Calm   2.1 mph /  3.4 km/h 85 % 0.0 in /  0 mm
03:41 -1.0 °F /  -18.3 °C -3.2 °F /  -19.6 °C 1015.1 in /  34371.3 hPa NW 0.2 mph /  0.3 km/h 3.2 mph /  5.1 km/h 85 % 0.0 in /  0 mm
03:46 -1.1 °F /  -18.4 °C -3.3 °F /  -19.6 °C 1015.1 in /  34371.3 hPa WNW 0.2 mph /  0.3 km/h 3.2 mph /  5.1 km/h 85 % 0.0 in /  0 mm
03:51 -1.1 °F /  -18.4 °C -3.3 °F /  -19.6 °C 1015.1 in /  34371.3 hPa NW 0.5 mph /  0.8 km/h 4.3 mph /  6.9 km/h 85 % 0.0 in /  0 mm
03:56 -1.0 °F /  -18.3 °C -3.2 °F /  -19.6 °C 1015.1 in /  34371.3 hPa NNW 1.1 mph /  1.8 km/h 4.3 mph /  6.9 km/h 85 % 0.0 in /  0 mm
04:01 -1.0 °F /  -18.3 °C -3.2 °F /  -19.6 °C 1015.1 in /  34371.3 hPa NNW 0.8 mph /  1.3 km/h 4.0 mph /  6.4 km/h 85 % 0.0 in /  0 mm
04:06 -0.9 °F /  -18.3 °C -3.1 °F /  -19.5 °C 1015.1 in /  34371.3 hPa Calm   2.1 mph /  3.4 km/h 85 % 0.0 in /  0 mm
04:11 -0.9 °F /  -18.3 °C -3.1 °F /  -19.5 °C 1015.1 in /  34371.3 hPa Calm   1.4 mph /  2.3 km/h 85 % 0.0 in /  0 mm
04:26 -0.6 °F /  -18.1 °C -2.7 °F /  -19.3 °C 1014.1 in /  34337.4 hPa South 1.8 mph /  2.9 km/h 5.0 mph /  8 km/h 86 % 0.0 in /  0 mm
04:31 -0.5 °F /  -18.1 °C -2.6 °F /  -19.2 °C 1014.1 in /  34337.4 hPa South 1.9 mph /  3.1 km/h 5.0 mph /  8 km/h 86 % 0.0 in /  0 mm
04:41 -0.5 °F /  -18.1 °C -2.6 °F /  -19.2 °C 1014.1 in /  34337.4 hPa WNW 0.8 mph /  1.3 km/h 4.0 mph /  6.4 km/h 86 % 0.0 in /  0 mm
04:46 -0.5 °F /  -18.1 °C -2.6 °F /  -19.2 °C 1014.1 in /  34337.4 hPa WNW 0.2 mph /  0.3 km/h 2.6 mph /  4.2 km/h 86 % 0.0 in /  0 mm
04:51 -0.5 °F /  -18.1 °C -2.6 °F /  -19.2 °C 1014.1 in /  34337.4 hPa Calm     86 % 0.0 in /  0 mm
04:56 -0.5 °F /  -18.1 °C -2.6 °F /  -19.2 °C 1015.1 in /  34371.3 hPa Calm     86 % 0.0 in /  0 mm
05:01 -0.5 °F /  -18.1 °C -2.4 °F /  -19.1 °C 1015.1 in /  34371.3 hPa Calm     87 % 0.0 in /  0 mm
05:06 -0.4 °F /  -18 °C -2.3 °F /  -19.1 °C 1015.1 in /  34371.3 hPa Calm     87 % 0.0 in /  0 mm
05:16 -0.3 °F /  -17.9 °C -2.2 °F /  -19 °C 1015.1 in /  34371.3 hPa Calm     87 % 0.0 in /  0 mm
05:21 -0.3 °F /  -17.9 °C -2.2 °F /  -19 °C 1015.1 in /  34371.3 hPa NW 0.3 mph /  0.5 km/h 4.0 mph /  6.4 km/h 87 % 0.0 in /  0 mm
05:26 -0.2 °F /  -17.9 °C -2.1 °F /  -18.9 °C 1016.1 in /  34405.1 hPa NW 0.5 mph /  0.8 km/h 4.0 mph /  6.4 km/h 87 % 0.0 in /  0 mm
05:31 -0.2 °F /  -17.9 °C -2.1 °F /  -18.9 °C 1016.1 in /  34405.1 hPa NW 0.3 mph /  0.5 km/h 3.2 mph /  5.1 km/h 87 % 0.0 in /  0 mm
05:36 -0.1 °F /  -17.8 °C -2.0 °F /  -18.9 °C 1016.1 in /  34405.1 hPa SE 0.8 mph /  1.3 km/h 4.3 mph /  6.9 km/h 87 % 0.0 in /  0 mm
05:41 -0.1 °F /  -17.8 °C -2.0 °F /  -18.9 °C 1016.8 in /  34428.8 hPa SE 0.8 mph /  1.3 km/h 4.3 mph /  6.9 km/h 87 % 0.0 in /  0 mm
05:51 0.0 °F /  -17.8 °C -1.8 °F /  -18.8 °C 1016.8 in /  34428.8 hPa Calm     88 % 0.0 in /  0 mm
05:56 0.1 °F /  -17.7 °C -1.7 °F /  -18.7 °C 1016.8 in /  34428.8 hPa Calm     88 % 0.0 in /  0 mm
06:06 0.1 °F /  -17.7 °C -1.7 °F /  -18.7 °C 1016.8 in /  34428.8 hPa SW 3.4 mph /  5.5 km/h 7.9 mph /  12.7 km/h 88 % 0.0 in /  0 mm
06:11 0.1 °F /  -17.7 °C -1.7 °F /  -18.7 °C 1016.1 in /  34405.1 hPa SSW 3.9 mph /  6.3 km/h 7.9 mph /  12.7 km/h 88 % 0.0 in /  0 mm
06:16 0.1 °F /  -17.7 °C -1.7 °F /  -18.7 °C 1016.1 in /  34405.1 hPa South 1.9 mph /  3.1 km/h 4.7 mph /  7.6 km/h 88 % 0.0 in /  0 mm
06:21 0.1 °F /  -17.7 °C -1.7 °F /  -18.7 °C 1016.1 in /  34405.1 hPa ENE 0.3 mph /  0.5 km/h 1.8 mph /  2.9 km/h 88 % 0.0 in /  0 mm
06:26 0.1 °F /  -17.7 °C -1.7 °F /  -18.7 °C 1018.2 in /  34476.3 hPa Calm     88 % 0.0 in /  0 mm
06:31 0.1 °F /  -17.7 °C -1.7 °F /  -18.7 °C 1018.2 in /  34476.3 hPa Calm     88 % 0.0 in /  0 mm
06:46 0.1 °F /  -17.7 °C -1.7 °F /  -18.7 °C 1016.8 in /  34428.8 hPa WNW 0.6 mph /  1 km/h 3.5 mph /  5.6 km/h 88 % 0.0 in /  0 mm
06:56 -0.2 °F /  -17.9 °C -1.9 °F /  -18.8 °C 1018.2 in /  34476.3 hPa WNW 2.9 mph /  4.7 km/h 5.0 mph /  8 km/h 88 % 0.0 in /  0 mm
07:01 -0.2 °F /  -17.9 °C -1.9 °F /  -18.8 °C 1018.2 in /  34476.3 hPa WSW 3.5 mph /  5.6 km/h 5.0 mph /  8 km/h 88 % 0.0 in /  0 mm
07:06 -0.3 °F /  -17.9 °C -2.1 °F /  -18.9 °C 1018.2 in /  34476.3 hPa SSW 1.8 mph /  2.9 km/h 4.3 mph /  6.9 km/h 88 % 0.0 in /  0 mm
07:11 -0.4 °F /  -18 °C -2.2 °F /  -19 °C 1018.8 in /  34496.6 hPa SSW 0.6 mph /  1 km/h 3.2 mph /  5.1 km/h 88 % 0.0 in /  0 mm
07:16 -0.5 °F /  -18.1 °C -2.2 °F /  -19 °C 1018.8 in /  34496.6 hPa SSW 0.2 mph /  0.3 km/h 2.6 mph /  4.2 km/h 88 % 0.0 in /  0 mm
07:21 -0.5 °F /  -18.1 °C -2.2 °F /  -19 °C 1018.8 in /  34496.6 hPa Calm   2.1 mph /  3.4 km/h 88 % 0.0 in /  0 mm
07:26 -0.6 °F /  -18.1 °C -2.3 °F /  -19.1 °C 1018.8 in /  34496.6 hPa SSW 0.3 mph /  0.5 km/h 4.3 mph /  6.9 km/h 88 % 0.0 in /  0 mm
07:31 -0.6 °F /  -18.1 °C -2.3 °F /  -19.1 °C 1018.8 in /  34496.6 hPa SSW 1.4 mph /  2.3 km/h 4.3 mph /  6.9 km/h 88 % 0.0 in /  0 mm
07:36 -0.6 °F /  -18.1 °C -2.3 °F /  -19.1 °C 1018.8 in /  34496.6 hPa SSW 1.4 mph /  2.3 km/h 3.5 mph /  5.6 km/h 88 % 0.0 in /  0 mm
07:41 -0.5 °F /  -18.1 °C -2.2 °F /  -19 °C 1018.8 in /  34496.6 hPa North 0.2 mph /  0.3 km/h   88 % 0.0 in /  0 mm
07:46 -0.6 °F /  -18.1 °C -2.3 °F /  -19.1 °C 1018.8 in /  34496.6 hPa Calm     88 % 0.0 in /  0 mm
07:51 -0.6 °F /  -18.1 °C -2.3 °F /  -19.1 °C 1018.8 in /  34496.6 hPa Calm     88 % 0.0 in /  0 mm
07:56 -0.6 °F /  -18.1 °C -2.3 °F /  -19.1 °C 1018.8 in /  34496.6 hPa South 0.6 mph /  1 km/h 5.5 mph /  8.9 km/h 88 % 0.0 in /  0 mm
08:01 -0.5 °F /  -18.1 °C -2.2 °F /  -19 °C 1018.8 in /  34496.6 hPa South 1.6 mph /  2.6 km/h 5.5 mph /  8.9 km/h 88 % 0.0 in /  0 mm
08:06 -0.5 °F /  -18.1 °C -2.2 °F /  -19 °C 1018.8 in /  34496.6 hPa SSE 1.1 mph /  1.8 km/h 4.3 mph /  6.9 km/h 88 % 0.0 in /  0 mm
08:11 -0.5 °F /  -18.1 °C -2.2 °F /  -19 °C 1018.8 in /  34496.6 hPa SSW 0.6 mph /  1 km/h 3.2 mph /  5.1 km/h 88 % 0.0 in /  0 mm
08:16 -0.4 °F /  -18 °C -2.2 °F /  -19 °C 1018.8 in /  34496.6 hPa South 0.6 mph /  1 km/h 3.2 mph /  5.1 km/h 88 % 0.0 in /  0 mm
08:21 -0.4 °F /  -18 °C -2.2 °F /  -19 °C 1018.8 in /  34496.6 hPa Calm     88 % 0.0 in /  0 mm
08:26 -0.3 °F /  -17.9 °C -1.9 °F /  -18.8 °C 1019.9 in /  34533.8 hPa Calm     89 % 0.0 in /  0 mm
08:31 -0.2 °F /  -17.9 °C -1.8 °F /  -18.8 °C 1019.9 in /  34533.8 hPa WSW 0.2 mph /  0.3 km/h 4.0 mph /  6.4 km/h 89 % 0.0 in /  0 mm
08:36 -0.1 °F /  -17.8 °C -1.7 °F /  -18.7 °C 1019.9 in /  34533.8 hPa SW 1.4 mph /  2.3 km/h 4.7 mph /  7.6 km/h 89 % 0.0 in /  0 mm
08:41 0.0 °F /  -17.8 °C -1.6 °F /  -18.7 °C 1019.9 in /  34533.8 hPa SSW 2.3 mph /  3.7 km/h 4.7 mph /  7.6 km/h 89 % 0.0 in /  0 mm
08:46 0.0 °F /  -17.8 °C -1.6 °F /  -18.7 °C 1019.9 in /  34533.8 hPa ENE 1.3 mph /  2.1 km/h 4.0 mph /  6.4 km/h 89 % 0.0 in /  0 mm
08:51 0.1 °F /  -17.7 °C -1.5 °F /  -18.6 °C 1019.9 in /  34533.8 hPa NW 0.3 mph /  0.5 km/h 3.5 mph /  5.6 km/h 89 % 0.0 in /  0 mm
09:01 0.3 °F /  -17.6 °C -1.3 °F /  -18.5 °C 1020.9 in /  34567.7 hPa SSE 2.4 mph /  3.9 km/h 6.4 mph /  10.3 km/h 89 % 0.0 in /  0 mm
09:06 0.3 °F /  -17.6 °C -1.3 °F /  -18.5 °C 1020.9 in /  34567.7 hPa West 1.1 mph /  1.8 km/h 4.3 mph /  6.9 km/h 89 % 0.0 in /  0 mm
09:11 0.4 °F /  -17.6 °C -1.2 °F /  -18.4 °C 1020.9 in /  34567.7 hPa SE 0.2 mph /  0.3 km/h 3.2 mph /  5.1 km/h 89 % 0.0 in /  0 mm
09:16 0.5 °F /  -17.5 °C -1.1 °F /  -18.4 °C 1020.9 in /  34567.7 hPa SE 0.2 mph /  0.3 km/h 1.4 mph /  2.3 km/h 89 % 0.0 in /  0 mm
09:21 0.5 °F /  -17.5 °C -1.1 °F /  -18.4 °C 1020.9 in /  34567.7 hPa Calm     89 % 0.0 in /  0 mm
09:26 0.6 °F /  -17.4 °C -1.0 °F /  -18.3 °C 1020.9 in /  34567.7 hPa East 0.3 mph /  0.5 km/h 2.1 mph /  3.4 km/h 89 % 0.0 in /  0 mm
09:31 0.7 °F /  -17.4 °C -0.8 °F /  -18.2 °C 1020.9 in /  34567.7 hPa East 0.3 mph /  0.5 km/h 2.1 mph /  3.4 km/h 90 % 0.0 in /  0 mm
09:46 1.0 °F /  -17.2 °C -0.6 °F /  -18.1 °C 1020.9 in /  34567.7 hPa SSE 0.2 mph /  0.3 km/h 2.6 mph /  4.2 km/h 89 % 0.0 in /  0 mm
09:51 1.1 °F /  -17.2 °C -0.5 °F /  -18.1 °C 1020.9 in /  34567.7 hPa South 1.1 mph /  1.8 km/h 4.7 mph /  7.6 km/h 89 % 0.0 in /  0 mm
10:01 1.4 °F /  -17 °C -0.1 °F /  -17.8 °C 1020.9 in /  34567.7 hPa SSW 0.8 mph /  1.3 km/h 4.0 mph /  6.4 km/h 90 % 0.0 in /  0 mm
10:06 1.5 °F /  -16.9 °C 0.1 °F /  -17.7 °C 1020.9 in /  34567.7 hPa SSW 2.1 mph /  3.4 km/h 4.3 mph /  6.9 km/h 90 % 0.0 in /  0 mm
10:11 1.6 °F /  -16.9 °C 0.1 °F /  -17.7 °C 1021.9 in /  34601.5 hPa SSW 1.9 mph /  3.1 km/h 4.3 mph /  6.9 km/h 90 % 0.0 in /  0 mm
10:16 1.7 °F /  -16.8 °C 0.2 °F /  -17.7 °C 1021.9 in /  34601.5 hPa South 1.3 mph /  2.1 km/h 4.0 mph /  6.4 km/h 90 % 0.0 in /  0 mm
10:22 1.8 °F /  -16.8 °C 0.3 °F /  -17.6 °C 1021.9 in /  34601.5 hPa SE 2.4 mph /  3.9 km/h 4.7 mph /  7.6 km/h 90 % 0.0 in /  0 mm
10:27 1.9 °F /  -16.7 °C 0.4 °F /  -17.6 °C 1022.9 in /  34635.4 hPa SE 2.7 mph /  4.3 km/h 4.7 mph /  7.6 km/h 90 % 0.0 in /  0 mm
10:32 2.0 °F /  -16.7 °C 0.4 °F /  -17.6 °C 1022.9 in /  34635.4 hPa South 1.4 mph /  2.3 km/h 4.7 mph /  7.6 km/h 89 % 0.0 in /  0 mm
10:37 2.0 °F /  -16.7 °C 0.4 °F /  -17.6 °C 1022.9 in /  34635.4 hPa Calm     89 % 0.0 in /  0 mm
10:42 2.2 °F /  -16.6 °C 0.6 °F /  -17.4 °C 1022.9 in /  34635.4 hPa Calm     89 % 0.0 in /  0 mm
10:47 2.3 °F /  -16.5 °C 0.7 °F /  -17.4 °C 1022.9 in /  34635.4 hPa Calm     89 % 0.0 in /  0 mm
10:52 2.4 °F /  -16.4 °C 0.9 °F /  -17.3 °C 1022.9 in /  34635.4 hPa NNW 0.3 mph /  0.5 km/h 3.2 mph /  5.1 km/h 90 % 0.0 in /  0 mm
10:57 2.5 °F /  -16.4 °C 1.0 °F /  -17.2 °C 1022.9 in /  34635.4 hPa NNW 0.6 mph /  1 km/h 3.2 mph /  5.1 km/h 90 % 0.0 in /  0 mm
11:02 2.6 °F /  -16.3 °C 0.9 °F /  -17.3 °C 1022.9 in /  34635.4 hPa NNW 0.3 mph /  0.5 km/h 2.6 mph /  4.2 km/h 89 % 0.0 in /  0 mm
11:07 2.8 °F /  -16.2 °C 1.2 °F /  -17.1 °C 1022.9 in /  34635.4 hPa Calm   1.8 mph /  2.9 km/h 89 % 0.0 in /  0 mm
11:12 2.9 °F /  -16.2 °C 1.3 °F /  -17.1 °C 1021.9 in /  34601.5 hPa Calm     89 % 0.0 in /  0 mm
11:22 3.1 °F /  -16.1 °C 1.4 °F /  -17 °C 1021.9 in /  34601.5 hPa Calm     89 % 0.0 in /  0 mm
11:27 3.3 °F /  -15.9 °C 1.7 °F /  -16.8 °C 1022.9 in /  34635.4 hPa Calm     89 % 0.0 in /  0 mm
11:32 3.4 °F /  -15.9 °C 1.8 °F /  -16.8 °C 1022.9 in /  34635.4 hPa Calm     89 % 0.0 in /  0 mm
11:42 3.6 °F /  -15.8 °C 1.8 °F /  -16.8 °C 1021.9 in /  34601.5 hPa Calm     88 % 0.0 in /  0 mm
11:47 3.8 °F /  -15.7 °C 2.0 °F /  -16.7 °C 1021.9 in /  34601.5 hPa Calm     88 % 0.0 in /  0 mm
11:52 4.0 °F /  -15.6 °C 2.2 °F /  -16.6 °C 1021.9 in /  34601.5 hPa Calm   2.6 mph /  4.2 km/h 88 % 0.0 in /  0 mm
11:57 4.1 °F /  -15.5 °C 2.3 °F /  -16.5 °C 1022.9 in /  34635.4 hPa SSE 0.2 mph /  0.3 km/h 3.2 mph /  5.1 km/h 88 % 0.0 in /  0 mm
12:02 4.3 °F /  -15.4 °C 2.3 °F /  -16.5 °C 1022.9 in /  34635.4 hPa SSE 1.4 mph /  2.3 km/h 4.0 mph /  6.4 km/h 87 % 0.0 in /  0 mm
12:07 4.6 °F /  -15.2 °C 2.6 °F /  -16.3 °C 1022.9 in /  34635.4 hPa SSE 1.1 mph /  1.8 km/h 4.0 mph /  6.4 km/h 87 % 0.0 in /  0 mm
12:12 4.7 °F /  -15.2 °C 2.7 °F /  -16.3 °C 1022.9 in /  34635.4 hPa Calm   1.8 mph /  2.9 km/h 87 % 0.0 in /  0 mm
12:17 4.8 °F /  -15.1 °C 2.8 °F /  -16.2 °C 1022.9 in /  34635.4 hPa SSE 0.6 mph /  1 km/h 4.3 mph /  6.9 km/h 87 % 0.0 in /  0 mm
12:22 5.1 °F /  -14.9 °C 2.9 °F /  -16.2 °C 1022.9 in /  34635.4 hPa South 1.4 mph /  2.3 km/h 4.3 mph /  6.9 km/h 86 % 0.0 in /  0 mm
12:27 5.2 °F /  -14.9 °C 3.1 °F /  -16.1 °C 1022.9 in /  34635.4 hPa SSW 0.6 mph /  1 km/h 3.2 mph /  5.1 km/h 86 % 0.0 in /  0 mm
12:32 5.3 °F /  -14.8 °C 3.0 °F /  -16.1 °C 1022.9 in /  34635.4 hPa Calm   2.6 mph /  4.2 km/h 85 % 0.0 in /  0 mm
12:37 5.4 °F /  -14.8 °C 3.1 °F /  -16.1 °C 1022.9 in /  34635.4 hPa Calm   2.6 mph /  4.2 km/h 85 % 0.0 in /  0 mm
12:42 5.4 °F /  -14.8 °C 2.9 °F /  -16.2 °C 1022.9 in /  34635.4 hPa WSW 0.8 mph /  1.3 km/h 4.0 mph /  6.4 km/h 84 % 0.0 in /  0 mm
12:47 5.5 °F /  -14.7 °C 3.0 °F /  -16.1 °C 1022.9 in /  34635.4 hPa SSW 1.3 mph /  2.1 km/h 4.0 mph /  6.4 km/h 84 % 0.0 in /  0 mm
12:52 5.7 °F /  -14.6 °C 3.1 °F /  -16.1 °C 1022.9 in /  34635.4 hPa SSE 0.5 mph /  0.8 km/h 3.2 mph /  5.1 km/h 83 % 0.0 in /  0 mm
12:57 5.8 °F /  -14.6 °C 2.9 °F /  -16.2 °C 1022.9 in /  34635.4 hPa Calm   1.4 mph /  2.3 km/h 82 % 0.0 in /  0 mm
13:02 5.8 °F /  -14.6 °C 2.8 °F /  -16.2 °C 1022.9 in /  34635.4 hPa Calm     81 % 0.0 in /  0 mm
13:07 5.9 °F /  -14.5 °C 2.7 °F /  -16.3 °C 1022.9 in /  34635.4 hPa Calm     80 % 0.0 in /  0 mm
13:12 6.0 °F /  -14.4 °C 2.6 °F /  -16.3 °C 1022.9 in /  34635.4 hPa SE 0.3 mph /  0.5 km/h 3.2 mph /  5.1 km/h 79 % 0.0 in /  0 mm
13:17 6.0 °F /  -14.4 °C 2.4 °F /  -16.4 °C 1022.9 in /  34635.4 hPa SE 0.3 mph /  0.5 km/h 3.2 mph /  5.1 km/h 78 % 0.0 in /  0 mm
13:22 6.1 °F /  -14.4 °C 2.6 °F /  -16.3 °C 1022.9 in /  34635.4 hPa South 0.2 mph /  0.3 km/h 2.1 mph /  3.4 km/h 78 % 0.0 in /  0 mm
13:27 6.1 °F /  -14.4 °C 2.4 °F /  -16.4 °C 1023.9 in /  34669.3 hPa South 0.5 mph /  0.8 km/h 3.2 mph /  5.1 km/h 77 % 0.0 in /  0 mm
13:32 6.2 °F /  -14.3 °C 2.3 °F /  -16.5 °C 1023.9 in /  34669.3 hPa SE 1.4 mph /  2.3 km/h 4.0 mph /  6.4 km/h 76 % 0.0 in /  0 mm
13:38 6.3 °F /  -14.3 °C 2.4 °F /  -16.4 °C 1023.9 in /  34669.3 hPa SE 1.6 mph /  2.6 km/h 4.0 mph /  6.4 km/h 76 % 0.0 in /  0 mm
13:48 6.4 °F /  -14.2 °C 2.3 °F /  -16.5 °C 1022.9 in /  34635.4 hPa North 0.2 mph /  0.3 km/h   75 % 0.0 in /  0 mm
14:03 6.6 °F /  -14.1 °C 2.1 °F /  -16.6 °C 1023.9 in /  34669.3 hPa SSW 0.2 mph /  0.3 km/h 2.6 mph /  4.2 km/h 73 % 0.0 in /  0 mm
14:08 6.7 °F /  -14.1 °C 2.2 °F /  -16.6 °C 1023.9 in /  34669.3 hPa South 0.3 mph /  0.5 km/h 4.0 mph /  6.4 km/h 73 % 0.0 in /  0 mm
14:13 6.7 °F /  -14.1 °C 2.0 °F /  -16.7 °C 1023.9 in /  34669.3 hPa SSE 1.6 mph /  2.6 km/h 4.3 mph /  6.9 km/h 72 % 0.0 in /  0 mm
14:18 6.8 °F /  -14 °C 2.1 °F /  -16.6 °C 1023.9 in /  34669.3 hPa South 2.6 mph /  4.2 km/h 5.0 mph /  8 km/h 72 % 0.0 in /  0 mm
14:23 6.8 °F /  -14 °C 2.1 °F /  -16.6 °C 1023.9 in /  34669.3 hPa South 2.6 mph /  4.2 km/h 5.0 mph /  8 km/h 72 % 0.0 in /  0 mm
14:28 6.8 °F /  -14 °C 1.9 °F /  -16.7 °C 1023.9 in /  34669.3 hPa South 2.4 mph /  3.9 km/h 5.5 mph /  8.9 km/h 71 % 0.0 in /  0 mm
14:33 6.9 °F /  -13.9 °C 2.0 °F /  -16.7 °C 1023.9 in /  34669.3 hPa South 2.4 mph /  3.9 km/h 5.5 mph /  8.9 km/h 71 % 0.0 in /  0 mm
14:38 6.9 °F /  -13.9 °C 1.8 °F /  -16.8 °C 1023.9 in /  34669.3 hPa South 2.9 mph /  4.7 km/h 5.0 mph /  8 km/h 70 % 0.0 in /  0 mm
14:43 6.9 °F /  -13.9 °C 1.8 °F /  -16.8 °C 1023.9 in /  34669.3 hPa South 3.2 mph /  5.1 km/h 5.0 mph /  8 km/h 70 % 0.0 in /  0 mm
14:48 7.0 °F /  -13.9 °C 1.7 °F /  -16.8 °C 1023.9 in /  34669.3 hPa SSW 2.4 mph /  3.9 km/h 4.7 mph /  7.6 km/h 69 % 0.0 in /  0 mm
14:53 7.2 °F /  -13.8 °C 1.9 °F /  -16.7 °C 1023.9 in /  34669.3 hPa South 2.1 mph /  3.4 km/h 5.5 mph /  8.9 km/h 69 % 0.0 in /  0 mm
15:03 7.6 °F /  -13.6 °C 1.8 °F /  -16.8 °C 1023.9 in /  34669.3 hPa SSE 2.3 mph /  3.7 km/h 5.8 mph /  9.3 km/h 67 % 0.0 in /  0 mm
15:08 7.6 °F /  -13.6 °C 1.8 °F /  -16.8 °C 1023.9 in /  34669.3 hPa SW 2.4 mph /  3.9 km/h 5.8 mph /  9.3 km/h 67 % 0.0 in /  0 mm
15:18 7.5 °F /  -13.6 °C 1.1 °F /  -17.2 °C 1024.9 in /  34703.1 hPa SW 2.6 mph /  4.2 km/h 6.1 mph /  9.8 km/h 64 % 0.0 in /  0 mm
15:28 7.3 °F /  -13.7 °C 0.7 °F /  -17.4 °C 1024.9 in /  34703.1 hPa WSW 0.5 mph /  0.8 km/h 3.2 mph /  5.1 km/h 63 % 0.0 in /  0 mm
15:33 6.9 °F /  -13.9 °C 0.1 °F /  -17.7 °C 1024.9 in /  34703.1 hPa WSW 0.3 mph /  0.5 km/h 3.5 mph /  5.6 km/h 62 % 0.0 in /  0 mm
15:43 6.1 °F /  -14.4 °C -0.9 °F /  -18.3 °C 1024.9 in /  34703.1 hPa WSW 1.3 mph /  2.1 km/h 4.3 mph /  6.9 km/h 61 % 0.0 in /  0 mm
15:44 6.1 °F /  -14.4 °C -0.9 °F /  -18.3 °C 1024.9 in /  34703.1 hPa WSW 1.3 mph /  2.1 km/h 4.7 mph /  7.6 km/h 61 % 0.0 in /  0 mm
15:49 5.7 °F /  -14.6 °C -1.2 °F /  -18.4 °C 1024.9 in /  34703.1 hPa SW 1.9 mph /  3.1 km/h 4.7 mph /  7.6 km/h 61 % 0.0 in /  0 mm
16:04 4.8 °F /  -15.1 °C -2.1 °F /  -18.9 °C 1023.9 in /  34669.3 hPa NW 3.1 mph /  5 km/h 5.8 mph /  9.3 km/h 61 % 0.0 in /  0 mm
16:19 4.0 °F /  -15.6 °C -2.8 °F /  -19.3 °C 1023.9 in /  34669.3 hPa NW 1.6 mph /  2.6 km/h 5.5 mph /  8.9 km/h 61 % 0.0 in /  0 mm
16:34 3.3 °F /  -15.9 °C -3.3 °F /  -19.6 °C 1024.9 in /  34703.1 hPa NW 0.5 mph /  0.8 km/h 4.3 mph /  6.9 km/h 62 % 0.0 in /  0 mm
16:39 3.1 °F /  -16.1 °C -3.3 °F /  -19.6 °C 1024.9 in /  34703.1 hPa NW 0.2 mph /  0.3 km/h 4.3 mph /  6.9 km/h 63 % 0.0 in /  0 mm
16:44 2.9 °F /  -16.2 °C -3.2 °F /  -19.6 °C 1024.9 in /  34703.1 hPa NNW 0.2 mph /  0.3 km/h 2.1 mph /  3.4 km/h 64 % 0.0 in /  0 mm
16:49 2.7 °F /  -16.3 °C -3.4 °F /  -19.7 °C 1024.9 in /  34703.1 hPa NNW 0.2 mph /  0.3 km/h 4.7 mph /  7.6 km/h 64 % 0.0 in /  0 mm
16:59 2.3 °F /  -16.5 °C -3.6 °F /  -19.8 °C 1026.0 in /  34740.4 hPa NW 1.1 mph /  1.8 km/h 4.3 mph /  6.9 km/h 65 % 0.0 in /  0 mm
17:04 2.1 °F /  -16.6 °C -3.8 °F /  -19.9 °C 1026.0 in /  34740.4 hPa NNW 0.3 mph /  0.5 km/h 3.2 mph /  5.1 km/h 65 % 0.0 in /  0 mm
17:09 1.9 °F /  -16.7 °C -3.8 °F /  -19.9 °C 1026.0 in /  34740.4 hPa Calm     66 % 0.0 in /  0 mm
17:14 1.8 °F /  -16.8 °C -3.9 °F /  -19.9 °C 1026.0 in /  34740.4 hPa Calm     66 % 0.0 in /  0 mm
17:19 1.6 °F /  -16.9 °C -3.9 °F /  -19.9 °C 1026.0 in /  34740.4 hPa Calm   1.8 mph /  2.9 km/h 67 % 0.0 in /  0 mm
17:29 1.4 °F /  -17 °C -3.9 °F /  -19.9 °C 1027.0 in /  34774.2 hPa NNW 0.3 mph /  0.5 km/h 3.2 mph /  5.1 km/h 68 % 0.0 in /  0 mm
17:34 1.3 °F /  -17.1 °C -3.9 °F /  -19.9 °C 1027.0 in /  34774.2 hPa North 0.2 mph /  0.3 km/h   68 % 0.0 in /  0 mm
17:39 1.2 °F /  -17.1 °C -4.1 °F /  -20.1 °C 1027.0 in /  34774.2 hPa Calm     68 % 0.0 in /  0 mm
17:49 1.1 °F /  -17.2 °C -3.9 °F /  -19.9 °C 1027.0 in /  34774.2 hPa Calm     69 % 0.0 in /  0 mm
17:54 1.0 °F /  -17.2 °C -3.9 °F /  -19.9 °C 1027.0 in /  34774.2 hPa Calm     70 % 0.0 in /  0 mm
17:59 0.9 °F /  -17.3 °C -3.9 °F /  -19.9 °C 1027.0 in /  34774.2 hPa NNW 0.3 mph /  0.5 km/h 3.2 mph /  5.1 km/h 70 % 0.0 in /  0 mm
18:04 0.8 °F /  -17.3 °C -3.9 °F /  -19.9 °C 1027.0 in /  34774.2 hPa NNW 0.3 mph /  0.5 km/h 3.2 mph /  5.1 km/h 71 % 0.0 in /  0 mm
18:09 0.7 °F /  -17.4 °C -3.9 °F /  -19.9 °C 1027.0 in /  34774.2 hPa Calm   1.8 mph /  2.9 km/h 71 % 0.0 in /  0 mm
18:14 0.6 °F /  -17.4 °C -3.9 °F /  -19.9 °C 1026.0 in /  34740.4 hPa Calm     72 % 0.0 in /  0 mm
18:24 0.4 °F /  -17.6 °C -4.1 °F /  -20.1 °C 1026.0 in /  34740.4 hPa Calm     72 % 0.0 in /  0 mm
18:29 0.3 °F /  -17.6 °C -4.2 °F /  -20.1 °C 1027.0 in /  34774.2 hPa Calm     72 % 0.0 in /  0 mm
18:39 0.1 °F /  -17.7 °C -4.2 °F /  -20.1 °C 1027.0 in /  34774.2 hPa Calm     73 % 0.0 in /  0 mm
18:44 0.0 °F /  -17.8 °C -4.3 °F /  -20.2 °C 1027.0 in /  34774.2 hPa Calm     73 % 0.0 in /  0 mm
18:54 -0.2 °F /  -17.9 °C -4.3 °F /  -20.2 °C 1027.0 in /  34774.2 hPa NNW 0.6 mph /  1 km/h 3.2 mph /  5.1 km/h 74 % 0.0 in /  0 mm
18:59 -0.2 °F /  -17.9 °C -4.3 °F /  -20.2 °C 1027.0 in /  34774.2 hPa NNW 0.5 mph /  0.8 km/h 3.2 mph /  5.1 km/h 74 % 0.0 in /  0 mm
19:04 -0.3 °F /  -17.9 °C -4.4 °F /  -20.2 °C 1027.0 in /  34774.2 hPa Calm     74 % 0.0 in /  0 mm
19:09 -0.4 °F /  -18 °C -4.3 °F /  -20.2 °C 1027.0 in /  34774.2 hPa Calm     75 % 0.0 in /  0 mm
19:14 -0.5 °F /  -18.1 °C -4.4 °F /  -20.2 °C 1027.0 in /  34774.2 hPa Calm     75 % 0.0 in /  0 mm
19:19 -0.5 °F /  -18.1 °C -4.4 °F /  -20.2 °C 1027.0 in /  34774.2 hPa Calm     75 % 0.0 in /  0 mm
19:24 -0.6 °F /  -18.1 °C -4.5 °F /  -20.3 °C 1027.0 in /  34774.2 hPa Calm     75 % 0.0 in /  0 mm
19:29 -0.7 °F /  -18.2 °C -4.4 °F /  -20.2 °C 1027.0 in /  34774.2 hPa Calm     76 % 0.0 in /  0 mm
19:34 -0.8 °F /  -18.2 °C -4.5 °F /  -20.3 °C 1027.0 in /  34774.2 hPa Calm     76 % 0.0 in /  0 mm
19:49 -0.9 °F /  -18.3 °C -4.6 °F /  -20.3 °C 1028.0 in /  34808.1 hPa NW 1.3 mph /  2.1 km/h 4.0 mph /  6.4 km/h 76 % 0.0 in /  0 mm
19:54 -1.0 °F /  -18.3 °C -4.5 °F /  -20.3 °C 1028.0 in /  34808.1 hPa NNW 0.3 mph /  0.5 km/h 2.6 mph /  4.2 km/h 77 % 0.0 in /  0 mm
19:59 -1.0 °F /  -18.3 °C -4.5 °F /  -20.3 °C 1028.0 in /  34808.1 hPa Calm     77 % 0.0 in /  0 mm
20:14 -1.1 °F /  -18.4 °C -4.4 °F /  -20.2 °C 1028.0 in /  34808.1 hPa WNW 0.2 mph /  0.3 km/h 2.6 mph /  4.2 km/h 78 % 0.0 in /  0 mm
20:19 -1.2 °F /  -18.4 °C -4.6 °F /  -20.3 °C 1028.0 in /  34808.1 hPa WNW 0.2 mph /  0.3 km/h 2.6 mph /  4.2 km/h 78 % 0.0 in /  0 mm
20:29 -1.3 °F /  -18.5 °C -4.7 °F /  -20.4 °C 1028.0 in /  34808.1 hPa Calm     78 % 0.0 in /  0 mm
20:34 -1.3 °F /  -18.5 °C -4.7 °F /  -20.4 °C 1028.0 in /  34808.1 hPa Calm     78 % 0.0 in /  0 mm
20:49 -1.4 °F /  -18.6 °C -4.6 °F /  -20.3 °C 1028.0 in /  34808.1 hPa Calm     79 % 0.0 in /  0 mm
20:54 -1.5 °F /  -18.6 °C -4.7 °F /  -20.4 °C 1028.0 in /  34808.1 hPa Calm     79 % 0.0 in /  0 mm
20:59 -1.6 °F /  -18.7 °C -4.8 °F /  -20.4 °C 1028.0 in /  34808.1 hPa Calm     79 % 0.0 in /  0 mm
21:04 -1.6 °F /  -18.7 °C -4.8 °F /  -20.4 °C 1028.0 in /  34808.1 hPa Calm     79 % 0.0 in /  0 mm
21:09 -1.7 °F /  -18.7 °C -4.9 °F /  -20.5 °C 1028.0 in /  34808.1 hPa Calm     79 % 0.0 in /  0 mm
21:14 -1.7 °F /  -18.7 °C -4.7 °F /  -20.4 °C 1028.0 in /  34808.1 hPa Calm     80 % 0.0 in /  0 mm
21:19 -1.8 °F /  -18.8 °C -4.8 °F /  -20.4 °C 1028.0 in /  34808.1 hPa Calm     80 % 0.0 in /  0 mm
21:24 -1.8 °F /  -18.8 °C -4.8 °F /  -20.4 °C 1028.0 in /  34808.1 hPa Calm     80 % 0.0 in /  0 mm
21:29 -1.8 °F /  -18.8 °C -4.8 °F /  -20.4 °C 1029.0 in /  34841.9 hPa Calm     80 % 0.0 in /  0 mm
21:34 -1.9 °F /  -18.8 °C -4.9 °F /  -20.5 °C 1029.0 in /  34841.9 hPa Calm     80 % 0.0 in /  0 mm
21:39 -1.9 °F /  -18.8 °C -4.9 °F /  -20.5 °C 1029.0 in /  34841.9 hPa Calm     80 % 0.0 in /  0 mm
21:44 -2.0 °F /  -18.9 °C -4.8 °F /  -20.4 °C 1029.0 in /  34841.9 hPa Calm     81 % 0.0 in /  0 mm
21:49 -2.0 °F /  -18.9 °C -4.8 °F /  -20.4 °C 1029.0 in /  34841.9 hPa Calm     81 % 0.0 in /  0 mm
21:54 -2.0 °F /  -18.9 °C -4.8 °F /  -20.4 °C 1029.0 in /  34841.9 hPa Calm     81 % 0.0 in /  0 mm
22:04 -2.1 °F /  -18.9 °C -4.9 °F /  -20.5 °C 1029.0 in /  34841.9 hPa Calm     81 % 0.0 in /  0 mm
22:09 -2.2 °F /  -19 °C -4.8 °F /  -20.4 °C 1029.0 in /  34841.9 hPa Calm     82 % 0.0 in /  0 mm
22:14 -2.2 °F /  -19 °C -4.8 °F /  -20.4 °C 1029.0 in /  34841.9 hPa Calm     82 % 0.0 in /  0 mm
22:19 -2.2 °F /  -19 °C -4.8 °F /  -20.4 °C 1029.0 in /  34841.9 hPa Calm     82 % 0.0 in /  0 mm
22:24 -2.3 °F /  -19.1 °C -4.9 °F /  -20.5 °C 1029.0 in /  34841.9 hPa Calm     82 % 0.0 in /  0 mm
22:29 -2.3 °F /  -19.1 °C -4.9 °F /  -20.5 °C 1029.0 in /  34841.9 hPa Calm     82 % 0.0 in /  0 mm
22:34 -2.3 °F /  -19.1 °C -4.9 °F /  -20.5 °C 1029.0 in /  34841.9 hPa Calm     82 % 0.0 in /  0 mm
22:39 -2.3 °F /  -19.1 °C -4.9 °F /  -20.5 °C 1029.0 in /  34841.9 hPa Calm     82 % 0.0 in /  0 mm
22:44 -2.3 °F /  -19.1 °C -4.8 °F /  -20.4 °C 1029.0 in /  34841.9 hPa Calm     83 % 0.0 in /  0 mm
22:49 -2.4 °F /  -19.1 °C -4.9 °F /  -20.5 °C 1029.0 in /  34841.9 hPa Calm     83 % 0.0 in /  0 mm
22:54 -2.4 °F /  -19.1 °C -4.9 °F /  -20.5 °C 1029.0 in /  34841.9 hPa Calm     83 % 0.0 in /  0 mm
23:09 -2.5 °F /  -19.2 °C -5.0 °F /  -20.6 °C 1029.0 in /  34841.9 hPa Calm     83 % 0.0 in /  0 mm
23:14 -2.6 °F /  -19.2 °C -5.1 °F /  -20.6 °C 1029.0 in /  34841.9 hPa Calm     83 % 0.0 in /  0 mm
23:19 -2.6 °F /  -19.2 °C -4.9 °F /  -20.5 °C 1029.0 in /  34841.9 hPa Calm     84 % 0.0 in /  0 mm
23:24 -2.6 °F /  -19.2 °C -4.9 °F /  -20.5 °C 1029.0 in /  34841.9 hPa Calm     84 % 0.0 in /  0 mm
23:29 -2.7 °F /  -19.3 °C -5.1 °F /  -20.6 °C 1029.0 in /  34841.9 hPa Calm     84 % 0.0 in /  0 mm
23:34 -2.7 °F /  -19.3 °C -5.1 °F /  -20.6 °C 1029.0 in /  34841.9 hPa Calm     84 % 0.0 in /  0 mm
23:39 -2.8 °F /  -19.3 °C -5.1 °F /  -20.6 °C 1029.0 in /  34841.9 hPa Calm     84 % 0.0 in /  0 mm
23:44 -2.8 °F /  -19.3 °C -5.1 °F /  -20.6 °C 1030.0 in /  34875.8 hPa Calm     84 % 0.0 in /  0 mm
23:49 -2.8 °F /  -19.3 °C -5.1 °F /  -20.6 °C 1030.0 in /  34875.8 hPa Calm     84 % 0.0 in /  0 mm
23:54 -2.8 °F /  -19.3 °C -5.1 °F /  -20.6 °C 1030.0 in /  34875.8 hPa Calm     84 % 0.0 in /  0 mm
23:59 -2.9 °F /  -19.4 °C -5.2 °F /  -20.7 °C 1029.0 in /  34841.9 hPa Calm     84 % 0.0 in /  0 mm
Vremenska postaja Senovo
Podatki zbrani iz Weather Underground - 2.75 mb

Script developed by  Jim McMurry - jmcmurry@mwt.net Adapted for the template by  Wim van der Kuil - Leuven-Template.eu

Vremenski podatki so objavljeni na:

European Weather Network

WeatherCloud

Weather Underground

AWEKAS

HAMweather, WeatherForYou, PWS Weather

MapView

Geostik

Slovenia weather network

Oprema, ki se uporablja:

Vremenski program
Cumulus

Vremenski server
Asus

Cumulus

Asus